Time;durP1;ratioP1;P1;durP2;ratioP2;P2;SDS_P1;SDS_P2;PMS_P1;PMS_P2;Temp;Humidity;BMP_temperature;BMP_pressure;BME280_temperature;BME280_humidity;BME280_pressure;Samples;Min_cycle;Max_cycle;Signal;HPM_P1;HPM_P2
2022/11/06 00:00:37;;;;;;;9.95;5.63;;;;;;;7.46;76.85;99003.44;5029602;28;20125;-84
2022/11/06 00:03:03;;;;;;;10.93;7.72;;;;;;;7.10;78.73;99009.59;5011289;28;20079;-85
2022/11/06 00:08:14;;;;;;;12.15;7.85;;;;;;;6.84;78.06;98995.84;5029495;28;20036;-85
2022/11/06 00:10:40;;;;;;;8.45;5.90;;;;;;;7.10;77.99;98985.72;5027318;28;20044;-84
2022/11/06 00:13:05;;;;;;;14.95;7.35;;;;;;;7.14;77.63;98978.13;4995766;28;20509;-84
2022/11/06 00:15:30;;;;;;;8.75;5.80;;;;;;;7.45;77.11;98977.91;5009053;28;20048;-84
2022/11/06 00:17:56;;;;;;;12.35;8.15;;;;;;;7.12;77.32;98966.94;5009745;28;20056;-84
2022/11/06 00:20:21;;;;;;;12.20;8.65;;;;;;;7.26;77.23;98989.59;5009209;28;20040;-84
2022/11/06 00:22:47;;;;;;;16.17;8.05;;;;;;;6.54;78.89;98969.19;5009254;28;20036;-85
2022/11/06 00:25:12;;;;;;;17.40;9.55;;;;;;;6.62;79.13;98971.56;5012082;28;20057;-85
2022/11/06 00:27:40;;;;;;;9.13;6.00;;;;;;;7.09;77.63;98972.66;5033437;28;20569;-85
2022/11/06 00:30:13;;;;;;;9.38;5.38;;;;;;;7.66;76.42;98989.91;5010231;28;20025;-85
2022/11/06 00:32:38;;;;;;;8.10;5.63;;;;;;;7.29;76.78;98973.25;5026217;28;20029;-84
2022/11/06 00:35:04;;;;;;;11.20;7.20;;;;;;;7.17;76.69;98983.78;5006569;28;20033;-84
2022/11/06 00:37:29;;;;;;;12.20;6.72;;;;;;;6.66;78.80;98965.59;5011006;28;20056;-84
2022/11/06 00:39:55;;;;;;;9.32;5.45;;;;;;;7.43;75.94;98975.50;5027804;28;20064;-83
2022/11/06 00:42:20;;;;;;;11.35;7.07;;;;;;;7.20;77.49;98974.56;5011125;28;20478;-85
2022/11/06 00:44:46;;;;;;;11.52;6.13;;;;;;;7.56;75.43;98977.97;5009982;28;20129;-84
2022/11/06 00:47:12;;;;;;;19.38;6.50;;;;;;;7.36;76.18;98956.16;5005901;28;20072;-84
2022/11/06 00:49:38;;;;;;;11.38;5.85;;;;;;;7.65;75.13;98967.00;5009094;28;20084;-84
2022/11/06 00:52:03;;;;;;;9.93;6.18;;;;;;;7.47;76.33;98974.00;5005836;28;20037;-84
2022/11/06 00:54:29;;;;;;;9.43;6.32;;;;;;;7.70;75.36;98961.84;5010818;28;20132;-84
2022/11/06 00:56:56;;;;;;;13.18;5.30;;;;;;;7.41;76.23;98956.31;5008370;28;20105;-83
2022/11/06 00:59:21;;;;;;;12.13;7.20;;;;;;;7.55;76.32;98978.19;5030953;28;20041;-83
2022/11/06 01:01:47;;;;;;;11.65;6.70;;;;;;;7.65;75.20;98959.03;5024934;28;20039;-84
2022/11/06 01:04:18;;;;;;;12.70;7.18;;;;;;;7.51;75.06;98955.78;5012159;28;20130;-83
2022/11/06 01:06:47;;;;;;;11.52;6.05;;;;;;;7.65;75.11;98961.69;5026598;28;20026;-84
2022/11/06 01:09:16;;;;;;;16.75;6.70;;;;;;;7.76;75.46;98974.19;5025441;28;20033;-84
2022/11/06 01:11:44;;;;;;;9.90;6.05;;;;;;;7.29;76.31;98936.88;5026421;28;20477;-84
2022/11/06 01:14:12;;;;;;;12.50;6.55;;;;;;;7.62;75.78;98955.00;5011985;28;20061;-84
2022/11/06 01:16:38;;;;;;;8.57;5.45;;;;;;;7.70;75.00;98943.25;5026219;28;20029;-85
2022/11/06 01:19:04;;;;;;;11.32;6.25;;;;;;;7.80;75.52;98970.09;5005994;28;20052;-85
2022/11/06 01:21:32;;;;;;;17.67;7.68;;;;;;;7.42;76.38;98957.94;5008058;28;20127;-84
2022/11/06 01:24:00;;;;;;;16.05;6.53;;;;;;;7.68;75.49;98955.94;5010053;28;20397;-85
2022/11/06 01:26:27;;;;;;;10.63;6.20;;;;;;;7.88;74.77;98978.53;5010087;28;20128;-84
2022/11/06 01:28:54;;;;;;;9.27;5.78;;;;;;;7.95;75.27;98970.47;5028276;28;20040;-84
2022/11/06 01:31:22;;;;;;;7.65;5.50;;;;;;;7.89;74.24;98966.84;5028346;28;20041;-83
2022/11/06 01:33:48;;;;;;;10.52;5.82;;;;;;;7.87;75.23;98965.44;5028429;28;20025;-84
2022/11/06 01:36:16;;;;;;;11.13;5.70;;;;;;;7.88;75.44;98969.75;5030062;28;20094;-84
2022/11/06 01:38:50;;;;;;;9.05;5.07;;;;;;;7.91;75.31;98974.59;5027920;28;20029;-84
2022/11/06 01:41:22;;;;;;;10.15;6.03;;;;;;;7.67;75.54;98959.63;5006751;28;20028;-84
2022/11/06 01:43:52;;;;;;;9.45;5.80;;;;;;;7.76;75.31;98961.75;4993861;28;20501;-84
2022/11/06 01:46:20;;;;;;;11.70;6.38;;;;;;;7.69;76.08;98970.84;5029523;28;20033;-84
2022/11/06 01:48:51;;;;;;;9.70;4.95;;;;;;;7.82;75.07;98957.38;5026656;28;20064;-84
2022/11/06 01:51:18;;;;;;;10.70;5.50;;;;;;;7.94;74.98;98966.16;5033360;28;20037;-84
2022/11/06 01:53:44;;;;;;;8.30;4.95;;;;;;;7.96;74.45;98962.25;5016925;28;20034;-84
2022/11/06 01:56:11;;;;;;;8.43;6.18;;;;;;;7.53;76.24;98954.50;5009494;28;20030;-83
2022/11/06 01:58:40;;;;;;;12.95;5.65;;;;;;;7.41;76.10;98944.88;5029410;28;20070;-84
2022/11/06 02:01:06;;;;;;;13.88;7.72;;;;;;;7.13;76.85;98928.72;5027579;28;20029;-84
2022/11/06 02:03:34;;;;;;;11.85;5.65;;;;;;;7.62;75.56;98936.41;5012077;28;20033;-84
2022/11/06 02:06:02;;;;;;;7.95;5.50;;;;;;;7.76;76.69;98960.91;5031104;28;20049;-84
2022/11/06 02:08:29;;;;;;;6.32;4.85;;;;;;;7.81;75.42;98945.13;5029722;28;20095;-84
2022/11/06 02:10:54;;;;;;;13.63;5.20;;;;;;;7.67;75.54;98939.19;4997250;28;20078;-84
2022/11/06 02:13:27;;;;;;;12.13;5.43;;;;;;;7.99;75.00;98955.66;5028798;28;20033;-84
2022/11/06 02:16:37;;;;;;;11.10;5.43;;;;;;;7.77;75.63;98943.97;5027796;28;20025;-84
2022/11/06 02:19:15;;;;;;;11.30;5.35;;;;;;;8.10;75.15;98957.53;4942729;29;20064;-83
2022/11/06 02:22:02;;;;;;;11.35;5.45;;;;;;;8.20;74.68;98961.25;4940537;29;20119;-84
2022/11/06 02:24:46;;;;;;;;;;;;;;;7.93;75.51;98956.59;5000563;28;20041;-84
2022/11/06 02:27:15;;;;;;;9.57;6.07;;;;;;;7.65;76.00;98945.75;5029145;28;19923;-85
2022/11/06 02:29:46;;;;;;;10.05;6.22;;;;;;;7.84;76.50;98953.44;5010206;28;20386;-84
2022/11/06 02:32:20;;;;;;;11.75;5.43;;;;;;;7.53;76.43;98941.22;5030102;28;20057;-84
2022/11/06 02:34:48;;;;;;;9.68;6.00;;;;;;;7.80;76.42;98924.91;5024401;28;20774;-84
2022/11/06 02:37:19;;;;;;;9.93;5.78;;;;;;;7.82;75.51;98923.63;5009810;28;20113;-85
2022/11/06 02:39:48;;;;;;;9.65;5.15;;;;;;;7.77;76.50;98918.22;5027706;28;20123;-84
2022/11/06 02:42:17;;;;;;;11.80;6.78;;;;;;;7.53;77.50;98935.13;5017167;28;20029;-84
2022/11/06 02:44:44;;;;;;;6.80;5.55;;;;;;;7.79;76.34;98916.13;5011876;28;20615;-84
2022/11/06 02:47:13;;;;;;;10.68;6.15;;;;;;;7.60;76.97;98884.56;5010906;28;20029;-85
2022/11/06 02:49:47;;;;;;;17.65;5.75;;;;;;;8.03;75.83;98909.00;5025035;28;20033;-85
2022/11/06 02:52:18;;;;;;;6.15;4.88;;;;;;;7.63;76.62;98894.72;5027209;28;20029;-83
2022/11/06 02:54:55;;;;;;;12.75;5.28;;;;;;;7.75;77.01;98909.66;5009735;28;20688;-83
2022/11/06 02:57:24;;;;;;;10.45;6.78;;;;;;;7.62;76.87;98901.88;5009546;28;20473;-83
2022/11/06 03:00:03;;;;;;;9.15;5.13;;;;;;;7.79;76.34;98915.31;5008626;28;20033;-84
2022/11/06 03:02:39;;;;;;;9.75;5.28;;;;;;;8.05;75.67;98936.13;5026870;28;20022;-84
2022/11/06 03:05:23;;;;;;;8.82;5.50;;;;;;;8.02;75.63;98924.13;5009881;28;20026;-84
2022/11/06 03:07:54;;;;;;;10.27;6.53;;;;;;;7.85;76.91;98922.34;5025791;28;20021;-83
2022/11/06 03:10:23;;;;;;;8.65;5.50;;;;;;;7.97;75.79;98918.66;5026090;28;20026;-84
2022/11/06 03:12:57;;;;;;;8.75;5.75;;;;;;;7.89;75.50;98883.66;5013002;28;20035;-83
2022/11/06 03:15:40;;;;;;;12.43;5.95;;;;;;;8.09;75.62;98913.38;5008756;28;20033;-83
2022/11/06 03:18:15;;;;;;;11.38;6.50;;;;;;;8.13;75.72;98906.56;5009726;28;20552;-84
2022/11/06 03:21:02;;;;;;;8.35;5.90;;;;;;;7.91;75.62;98886.88;5032635;28;20045;-84
2022/11/06 03:23:34;;;;;;;11.02;6.05;;;;;;;8.01;75.11;98884.50;5024151;28;20104;-83
2022/11/06 03:26:12;;;;;;;11.43;5.95;;;;;;;7.81;76.70;98898.09;5027704;28;20042;-83
2022/11/06 03:28:50;;;;;;;10.75;7.22;;;;;;;6.96;78.97;98899.34;5028448;28;20026;-84
2022/11/06 03:31:23;;;;;;;12.73;7.22;;;;;;;6.52;80.74;98892.53;5026702;28;20441;-84
2022/11/06 03:33:53;;;;;;;16.65;8.00;;;;;;;6.92;79.19;98887.56;5028418;28;20041;-84
2022/11/06 03:36:23;;;;;;;10.25;6.60;;;;;;;7.23;78.58;98897.16;5026487;28;20021;-84
2022/11/06 03:39:01;;;;;;;18.05;5.50;;;;;;;7.40;78.03;98901.56;5004898;28;20487;-84
2022/11/06 03:41:42;;;;;;;14.38;6.63;;;;;;;7.11;79.52;98901.59;5028643;28;20043;-84
2022/11/06 03:44:13;;;;;;;10.73;5.22;;;;;;;7.38;77.73;98871.00;5031195;28;20421;-84
2022/11/06 03:46:59;;;;;;;8.27;5.70;;;;;;;7.59;76.75;98870.47;5023501;28;20418;-84
2022/11/06 03:49:32;;;;;;;8.85;5.65;;;;;;;7.75;77.13;98893.72;5031355;28;20033;-84
2022/11/06 03:52:03;;;;;;;11.98;5.90;;;;;;;7.95;75.52;98888.88;5028165;28;20461;-85
2022/11/06 03:54:38;;;;;;;10.50;5.18;;;;;;;8.01;75.54;98880.00;5010145;28;20117;-84
2022/11/06 03:57:13;;;;;;;8.67;5.20;;;;;;;8.19;74.73;98887.81;5030162;28;20032;-84
2022/11/06 03:59:49;;;;;;;10.32;4.70;;;;;;;8.09;74.76;98900.91;5026225;28;20028;-84
2022/11/06 04:02:15;;;;;;;;;;;;;;;7.56;77.24;98911.56;5032156;28;20029;-84
2022/11/06 04:04:48;;;;;;;9.35;5.35;;;;;;;7.66;76.47;98886.28;4995513;28;19943;-84
2022/11/06 04:07:17;;;;;;;10.60;5.18;;;;;;;7.96;75.78;98895.81;5012047;28;20045;-83
2022/11/06 04:15:21;;;;;;;9.82;5.20;;;;;;;8.22;74.85;98900.66;5027431;28;20064;-83
2022/11/06 04:17:47;;;;;;;8.75;5.10;;;;;;;8.14;74.41;98902.88;5006754;28;20049;-84
2022/11/06 04:23:24;;;;;;;9.23;4.60;;;;;;;7.88;76.17;98892.69;5024504;28;20036;-83
2022/11/06 04:29:24;;;;;;;7.15;5.00;;;;;;;8.10;74.99;98912.34;5027290;28;20053;-83
2022/11/06 04:32:01;;;;;;;11.55;5.03;;;;;;;7.93;75.72;98888.28;5023422;28;20056;-83
2022/11/06 04:34:34;;;;;;;10.40;5.60;;;;;;;7.95;75.21;98909.34;5012740;28;20029;-83
2022/11/06 04:37:41;;;;;;;9.20;5.60;;;;;;;8.01;75.51;98895.13;5008502;28;20032;-83
2022/11/06 04:40:06;;;;;;;;;;;;;;;8.14;75.32;98900.22;5025363;28;20041;-82
2022/11/06 04:42:59;;;;;;;8.57;4.57;;;;;;;7.80;76.21;98880.53;5024506;28;20357;-83
2022/11/06 04:45:40;;;;;;;10.18;4.82;;;;;;;7.69;75.91;98899.13;5020614;28;20156;-83
2022/11/06 04:48:07;;;;;;;7.47;5.28;;;;;;;8.02;75.46;98925.97;5011492;28;20037;-83
2022/11/06 04:50:37;;;;;;;9.70;5.07;;;;;;;8.00;75.83;98928.03;5010628;28;20080;-84
2022/11/06 04:53:04;;;;;;;10.73;5.18;;;;;;;8.00;75.91;98912.09;5021698;28;20507;-83
2022/11/06 04:55:30;;;;;;;12.18;5.95;;;;;;;7.89;76.39;98924.34;5005127;28;20040;-83
2022/11/06 04:57:56;;;;;;;8.68;4.97;;;;;;;7.87;75.73;98899.03;5028754;28;20029;-83
2022/11/06 05:00:21;;;;;;;11.10;5.05;;;;;;;7.84;76.86;98899.50;4993193;28;20037;-83
2022/11/06 05:02:47;;;;;;;12.05;6.13;;;;;;;7.85;76.74;98898.44;5026317;28;20326;-83
2022/11/06 05:05:12;;;;;;;13.32;5.63;;;;;;;7.74;77.47;98894.75;5000016;28;20049;-83
2022/11/06 05:07:37;;;;;;;10.13;5.47;;;;;;;8.06;75.95;98885.41;5029332;28;20133;-83
2022/11/06 05:10:03;;;;;;;11.18;6.03;;;;;;;7.81;76.66;98871.53;5013293;28;20033;-82
2022/11/06 05:12:29;;;;;;;10.52;5.25;;;;;;;8.15;75.62;98888.53;5029047;28;20480;-83
2022/11/06 05:14:54;;;;;;;9.70;5.45;;;;;;;7.99;76.14;98875.94;5030695;28;20048;-83
2022/11/06 05:17:19;;;;;;;8.90;4.97;;;;;;;7.77;77.03;98888.16;5029520;28;20056;-83
2022/11/06 05:19:45;;;;;;;9.98;5.85;;;;;;;7.69;77.69;98888.50;5012681;28;20068;-83
2022/11/06 05:25:11;;;;;;;10.35;5.25;;;;;;;7.94;76.47;98897.06;4963235;28;20522;-83
2022/11/06 05:27:36;;;;;;;8.13;6.03;;;;;;;8.16;75.57;98901.59;5015207;28;20041;-83
2022/11/06 05:30:02;;;;;;;10.80;6.20;;;;;;;8.01;75.79;98906.56;5033798;28;20087;-83
2022/11/06 05:32:29;;;;;;;9.68;4.97;;;;;;;7.80;76.29;98867.25;5028479;28;20041;-83
2022/11/06 05:34:54;;;;;;;12.40;7.40;;;;;;;7.57;77.28;98881.31;5009330;28;20052;-83
2022/11/06 05:37:20;;;;;;;7.90;5.05;;;;;;;7.49;76.82;98847.09;5014064;28;20501;-83
2022/11/06 05:39:45;;;;;;;16.45;5.70;;;;;;;7.46;78.08;98906.00;5010035;28;20112;-83
2022/11/06 05:42:10;;;;;;;9.07;6.35;;;;;;;7.32;79.49;98903.75;5027131;28;20052;-83
2022/11/06 05:44:36;;;;;;;12.70;5.80;;;;;;;7.56;77.79;98892.97;5028148;28;20032;-83
2022/11/06 05:47:02;;;;;;;11.07;6.10;;;;;;;7.56;76.77;98886.84;5011181;28;20041;-83
2022/11/06 05:49:27;;;;;;;9.18;5.65;;;;;;;7.74;77.43;98881.47;5013077;28;20219;-83
2022/11/06 05:51:52;;;;;;;12.30;6.00;;;;;;;7.46;77.43;98884.75;5028262;28;20120;-83
2022/11/06 05:54:18;;;;;;;13.35;5.47;;;;;;;7.64;77.64;98867.13;5016120;28;20061;-83
2022/11/06 05:56:43;;;;;;;11.43;6.05;;;;;;;7.43;78.66;98882.56;5011976;28;20037;-84
2022/11/06 05:59:08;;;;;;;9.13;4.88;;;;;;;7.68;77.31;98852.34;5020901;28;20033;-84
2022/11/06 06:01:34;;;;;;;13.07;4.88;;;;;;;7.99;76.29;98882.06;4996280;28;20127;-83
2022/11/06 06:04:00;;;;;;;11.50;5.47;;;;;;;7.90;76.13;98872.00;5014547;28;20524;-83
2022/11/06 06:06:25;;;;;;;12.70;4.78;;;;;;;7.92;75.60;98872.56;4993688;28;20033;-83
2022/11/06 06:08:51;;;;;;;9.23;4.50;;;;;;;8.02;75.85;98902.84;5027846;28;20072;-83
2022/11/06 06:11:16;;;;;;;10.80;4.60;;;;;;;7.81;76.97;98903.41;4997758;28;20037;-83
2022/11/06 06:13:41;;;;;;;10.02;5.05;;;;;;;7.78;76.29;98877.31;5008341;28;20091;-83
2022/11/06 06:16:07;;;;;;;9.27;4.35;;;;;;;7.85;75.98;98869.22;5009634;28;20095;-83
2022/11/06 06:18:32;;;;;;;8.25;4.65;;;;;;;7.76;75.68;98859.97;4981208;28;20144;-83
2022/11/06 06:20:58;;;;;;;11.38;5.65;;;;;;;7.54;76.85;98871.16;5029054;28;20120;-83
2022/11/06 06:23:23;;;;;;;10.00;4.70;;;;;;;7.60;77.00;98869.41;5010479;28;20087;-83
2022/11/06 06:25:49;;;;;;;10.25;4.80;;;;;;;7.61;77.78;98859.59;5006499;28;20025;-83
2022/11/06 06:28:14;;;;;;;16.92;5.32;;;;;;;7.49;77.03;98856.94;5029047;28;20112;-83
2022/11/06 06:30:39;;;;;;;11.15;4.95;;;;;;;7.63;76.80;98818.50;5013784;28;20044;-83
2022/11/06 06:33:05;;;;;;;9.13;4.82;;;;;;;7.57;77.23;98851.28;4996674;28;20137;-83
2022/11/06 06:35:32;;;;;;;12.07;5.32;;;;;;;7.45;77.57;98851.25;5024315;28;20048;-83
2022/11/06 06:37:57;;;;;;;9.25;4.82;;;;;;;7.43;77.48;98845.38;5011422;28;20030;-83
2022/11/06 06:40:23;;;;;;;8.05;4.03;;;;;;;7.75;76.20;98850.41;5009911;28;20029;-83
2022/11/06 06:42:48;;;;;;;9.82;5.57;;;;;;;7.37;78.20;98859.56;5013120;28;20025;-84
2022/11/06 06:45:14;;;;;;;13.05;5.63;;;;;;;7.36;77.83;98834.03;5010817;28;20034;-83
2022/11/06 06:47:39;;;;;;;10.82;4.03;;;;;;;7.47;78.13;98854.50;5030064;28;20087;-82
2022/11/06 06:50:05;;;;;;;4.20;3.80;;;;;;;7.78;77.05;98853.38;5021757;28;20029;-83
2022/11/06 06:52:31;;;;;;;8.52;4.60;;;;;;;8.04;75.75;98857.44;5009990;28;20025;-83
2022/11/06 06:54:56;;;;;;;8.00;4.88;;;;;;;7.51;77.22;98826.44;5026779;28;20029;-83
2022/11/06 06:57:21;;;;;;;10.55;5.10;;;;;;;7.50;76.76;98826.69;5011177;28;20091;-83
2022/11/06 06:59:47;;;;;;;10.68;4.10;;;;;;;7.58;77.68;98872.31;5009011;28;20037;-83
2022/11/06 07:02:13;;;;;;;13.18;5.05;;;;;;;7.58;76.99;98871.50;5010080;28;20036;-83
2022/11/06 07:04:38;;;;;;;9.00;4.55;;;;;;;7.68;76.37;98849.69;5019799;28;20461;-83
2022/11/06 07:07:04;;;;;;;8.60;4.10;;;;;;;7.89;76.51;98865.06;4994623;28;20031;-83
2022/11/06 07:09:30;;;;;;;9.30;4.30;;;;;;;7.80;76.83;98866.47;5009766;28;20065;-83
2022/11/06 07:11:56;;;;;;;8.98;4.95;;;;;;;7.77;76.70;98843.81;5025902;28;20036;-83
2022/11/06 07:14:22;;;;;;;11.68;4.57;;;;;;;7.65;77.42;98853.59;5024670;28;20029;-83
2022/11/06 07:16:47;;;;;;;9.23;5.43;;;;;;;7.87;76.38;98861.81;5010113;28;20084;-83
2022/11/06 07:19:12;;;;;;;14.10;5.97;;;;;;;7.97;75.84;98844.25;5014569;28;20030;-83
2022/11/06 07:21:38;;;;;;;10.52;5.22;;;;;;;7.67;76.36;98808.22;5025803;28;20491;-84
2022/11/06 07:24:03;;;;;;;15.40;5.15;;;;;;;7.72;77.04;98841.03;5003635;28;20469;-83
2022/11/06 07:26:29;;;;;;;8.40;4.70;;;;;;;7.62;77.25;98838.16;5032639;28;20096;-83
2022/11/06 07:28:54;;;;;;;9.55;5.50;;;;;;;7.85;76.73;98846.13;5014095;28;20121;-83
2022/11/06 07:31:20;;;;;;;7.07;4.60;;;;;;;7.74;76.33;98823.00;5006359;28;20037;-83
2022/11/06 07:33:45;;;;;;;8.75;5.30;;;;;;;7.65;76.80;98818.25;4979616;28;20458;-83
2022/11/06 07:36:12;;;;;;;8.20;5.03;;;;;;;7.91;76.58;98844.38;5029599;28;20383;-83
2022/11/06 07:38:39;;;;;;;11.82;4.85;;;;;;;7.76;76.77;98830.75;5025647;28;20037;-84
2022/11/06 07:41:13;;;;;;;12.48;4.85;;;;;;;7.84;77.02;98841.03;5025844;28;20125;-84
2022/11/06 07:43:40;;;;;;;8.65;5.53;;;;;;;7.80;76.26;98826.59;5030690;28;20037;-83
2022/11/06 07:46:07;;;;;;;11.73;4.75;;;;;;;7.81;76.09;98826.38;5011322;28;20091;-83
2022/11/06 07:48:33;;;;;;;9.45;5.00;;;;;;;7.89;76.70;98839.28;5011226;28;20029;-83
2022/11/06 07:51:02;;;;;;;11.70;4.53;;;;;;;7.65;77.47;98828.88;5024147;28;20033;-83
2022/11/06 07:53:27;;;;;;;7.60;4.13;;;;;;;7.94;75.75;98826.13;5006590;28;20033;-83
2022/11/06 07:55:54;;;;;;;11.88;4.82;;;;;;;7.86;76.14;98812.41;4994777;28;20036;-83
2022/11/06 07:58:21;;;;;;;7.85;5.28;;;;;;;7.94;76.33;98822.66;5006649;28;20033;-83
2022/11/06 08:00:50;;;;;;;6.32;4.18;;;;;;;7.93;76.39;98829.81;5024531;28;20056;-83
2022/11/06 08:03:18;;;;;;;7.25;4.00;;;;;;;7.74;76.83;98807.06;5024885;28;20021;-83
2022/11/06 08:05:44;;;;;;;10.32;4.75;;;;;;;7.97;75.93;98825.66;5024938;28;20030;-83
2022/11/06 08:08:09;;;;;;;10.00;4.38;;;;;;;7.98;75.99;98835.25;5008747;28;20091;-83
2022/11/06 08:10:39;;;;;;;9.80;3.92;;;;;;;7.75;77.28;98829.13;5026548;28;21927;-83
2022/11/06 08:13:05;;;;;;;12.60;4.18;;;;;;;7.76;76.74;98812.97;5003457;28;20033;-83
2022/11/06 08:15:31;;;;;;;10.80;4.18;;;;;;;7.81;76.97;98826.38;5023554;28;21143;-83
2022/11/06 08:17:58;;;;;;;9.38;4.35;;;;;;;7.95;76.25;98826.94;5007035;28;20029;-83
2022/11/06 08:20:23;;;;;;;8.15;4.10;;;;;;;7.79;76.82;98809.03;5024186;28;20064;-83
2022/11/06 08:22:48;;;;;;;15.27;5.05;;;;;;;7.86;76.59;98815.88;5029092;28;20057;-84
2022/11/06 08:25:14;;;;;;;5.85;3.80;;;;;;;7.76;77.05;98804.19;5028393;28;20029;-83
2022/11/06 08:27:39;;;;;;;13.32;3.63;;;;;;;7.70;77.53;98800.59;5026604;28;20029;-83
2022/11/06 08:30:06;;;;;;;8.40;5.15;;;;;;;7.82;77.87;98812.03;4991284;28;20079;-82
2022/11/06 08:32:31;;;;;;;6.55;4.97;;;;;;;7.87;76.92;98795.41;5025613;28;20044;-82
2022/11/06 08:34:56;;;;;;;9.52;3.90;;;;;;;7.72;78.66;98787.91;5007579;28;20496;-83
2022/11/06 08:37:22;;;;;;;5.75;4.00;;;;;;;7.81;78.44;98809.63;5028040;28;20053;-82
2022/11/06 08:39:47;;;;;;;10.40;3.92;;;;;;;8.05;78.30;98812.03;5027068;28;20029;-83
2022/11/06 08:42:13;;;;;;;12.65;4.72;;;;;;;7.96;78.98;98810.75;5028549;28;20440;-82
2022/11/06 08:44:38;;;;;;;10.30;4.00;;;;;;;7.99;78.58;98793.56;5011302;28;20036;-83
2022/11/06 08:47:04;;;;;;;6.57;3.40;;;;;;;8.05;77.61;98785.47;5026456;28;20022;-83
2022/11/06 08:49:29;;;;;;;12.23;3.75;;;;;;;8.03;77.98;98782.22;5028655;28;20029;-83
2022/11/06 08:51:55;;;;;;;8.45;4.47;;;;;;;7.94;78.50;98785.47;5021082;28;20018;-82
2022/11/06 08:54:20;;;;;;;11.30;4.57;;;;;;;8.05;78.58;98796.09;5009734;28;20045;-82
2022/11/06 08:56:46;;;;;;;9.80;4.15;;;;;;;7.94;78.76;98794.25;5024783;28;20108;-82
2022/11/06 08:59:11;;;;;;;10.18;4.22;;;;;;;8.04;78.05;98772.38;5025483;28;20551;-82
2022/11/06 09:01:36;;;;;;;7.25;3.65;;;;;;;8.27;77.62;98806.94;5026640;28;20504;-83
2022/11/06 09:04:02;;;;;;;13.13;3.95;;;;;;;8.06;77.35;98775.63;5024472;28;20143;-82
2022/11/06 09:06:27;;;;;;;7.82;3.65;;;;;;;8.12;78.01;98780.81;5029692;28;20061;-83
2022/11/06 09:08:54;;;;;;;12.43;4.30;;;;;;;8.22;76.67;98796.16;5011368;28;20037;-83
2022/11/06 09:11:19;;;;;;;10.02;3.95;;;;;;;8.21;77.20;98794.56;5012689;28;20109;-82
2022/11/06 09:13:45;;;;;;;7.18;3.28;;;;;;;8.28;76.90;98798.72;5031216;28;20116;-82
2022/11/06 09:16:10;;;;;;;16.08;4.32;;;;;;;8.11;77.32;98787.16;5027199;28;20750;-82
2022/11/06 09:18:36;;;;;;;11.05;3.65;;;;;;;8.11;77.17;98770.41;5026257;28;20458;-82
2022/11/06 09:21:01;;;;;;;14.48;4.18;;;;;;;8.04;79.25;98772.38;4995664;28;20043;-83
2022/11/06 09:23:26;;;;;;;9.85;4.50;;;;;;;8.01;80.01;98786.16;5033949;28;20940;-83
2022/11/06 09:25:52;;;;;;;8.02;3.92;;;;;;;8.21;78.49;98774.06;5029202;28;20112;-83
2022/11/06 09:28:17;;;;;;;10.45;4.35;;;;;;;8.32;77.63;98786.56;5014976;28;20040;-83
2022/11/06 09:30:43;;;;;;;13.07;4.05;;;;;;;8.05;78.20;98769.50;5028803;28;20025;-83
2022/11/06 09:33:08;;;;;;;9.90;3.97;;;;;;;8.08;77.96;98758.38;5011151;28;20029;-83
2022/11/06 09:35:34;;;;;;;8.13;4.25;;;;;;;8.17;78.75;98778.25;5012205;28;20030;-82
2022/11/06 09:38:11;;;;;;;8.52;4.18;;;;;;;8.39;77.56;98781.13;5010089;28;20125;-82
2022/11/06 09:40:41;;;;;;;11.05;3.70;;;;;;;8.32;76.92;98763.69;5011255;28;20037;-83
2022/11/06 09:43:25;;;;;;;11.38;4.38;;;;;;;8.36;77.23;98778.94;5010227;28;20596;-83
2022/11/06 09:45:51;;;;;;;10.20;5.10;;;;;;;8.32;78.01;98777.81;5027867;28;20026;-83
2022/11/06 09:48:38;;;;;;;7.45;4.22;;;;;;;8.38;78.36;98765.41;5008771;28;20041;-83
2022/11/06 09:51:30;;;;;;;8.15;3.25;;;;;;;8.37;76.81;98753.13;5009784;28;20026;-83
2022/11/06 09:54:04;;;;;;;12.00;4.50;;;;;;;8.25;77.20;98739.88;5028216;28;20371;-83
2022/11/06 09:56:33;;;;;;;6.28;3.28;;;;;;;8.17;77.33;98709.13;5025190;28;20032;-83
2022/11/06 09:59:02;;;;;;;6.25;3.28;;;;;;;8.40;77.51;98732.22;5024193;28;20021;-83
2022/11/06 10:01:39;;;;;;;12.05;3.45;;;;;;;8.53;76.78;98741.75;5033577;28;20022;-83
2022/11/06 10:04:05;;;;;;;7.18;3.67;;;;;;;8.52;77.22;98753.47;5009690;28;22272;-83
2022/11/06 10:06:31;;;;;;;8.60;3.83;;;;;;;8.64;76.94;98733.75;4992998;28;20048;-83
2022/11/06 10:09:04;;;;;;;26.02;6.70;;;;;;;8.39;77.97;98713.84;5008911;28;20482;-83
2022/11/06 10:11:52;;;;;;;6.65;3.25;;;;;;;8.57;77.79;98724.28;5026439;28;20033;-83
2022/11/06 10:14:34;;;;;;;5.93;3.03;;;;;;;8.59;77.73;98738.13;5027093;28;20076;-83
2022/11/06 10:17:27;;;;;;;8.77;4.72;;;;;;;8.51;77.43;98726.03;5027475;28;20108;-83
2022/11/06 10:19:53;;;;;;;13.30;3.50;;;;;;;8.49;76.79;98728.13;5030692;28;20021;-83
2022/11/06 10:22:30;;;;;;;7.72;2.70;;;;;;;9.00;75.45;98722.66;5027768;28;20079;-83
2022/11/06 10:25:14;;;;;;;10.80;3.47;;;;;;;9.01;75.34;98718.94;5022963;28;20029;-83
2022/11/06 10:27:44;;;;;;;14.05;3.28;;;;;;;9.16;74.31;98705.06;5033834;28;20029;-83
2022/11/06 10:30:16;;;;;;;9.80;2.58;;;;;;;9.37;73.46;98711.53;5021420;28;20120;-83
2022/11/06 10:32:47;;;;;;;8.65;3.08;;;;;;;9.43;72.66;98718.53;5006882;28;20075;-83
2022/11/06 10:35:41;;;;;;;8.77;2.83;;;;;;;9.41;71.10;98724.13;5005592;28;20033;-83
2022/11/06 10:38:13;;;;;;;8.18;2.60;;;;;;;9.41;71.17;98707.31;5029469;28;20079;-83
2022/11/06 10:40:43;;;;;;;7.53;2.55;;;;;;;9.46;71.15;98694.88;5027294;28;20067;-83
2022/11/06 10:43:25;;;;;;;5.72;2.65;;;;;;;9.68;71.57;98698.38;4991413;28;20026;-82
2022/11/06 10:46:00;;;;;;;9.75;2.78;;;;;;;9.77;71.23;98696.09;5028827;28;20501;-83
2022/11/06 10:48:37;;;;;;;7.25;2.60;;;;;;;9.54;70.21;98673.16;5023459;28;20439;-83
2022/11/06 10:51:03;;;;;;;3.75;2.17;;;;;;;9.77;70.41;98701.44;5029018;28;20025;-83
2022/11/06 10:53:37;;;;;;;12.98;2.50;;;;;;;9.93;70.17;98703.25;5012015;28;20071;-83
2022/11/06 10:56:13;;;;;;;6.70;2.78;;;;;;;9.93;69.01;98703.25;5023438;28;20036;-83
2022/11/06 10:58:38;;;;;;;6.57;2.15;;;;;;;9.89;69.50;98683.47;5027795;28;20041;-83
2022/11/06 11:01:05;;;;;;;8.68;2.60;;;;;;;9.96;70.14;98670.75;4989460;28;20402;-83
2022/11/06 11:03:38;;;;;;;6.65;2.03;;;;;;;10.17;69.04;98669.16;5025678;28;20049;-83
2022/11/06 11:06:04;;;;;;;4.18;2.20;;;;;;;10.07;69.04;98653.81;5027083;28;20026;-83
2022/11/06 11:08:31;;;;;;;3.78;2.17;;;;;;;10.27;69.01;98659.41;5026490;28;20060;-83
2022/11/06 11:11:12;;;;;;;6.35;1.88;;;;;;;10.12;68.86;98661.91;5011570;28;20496;-82
2022/11/06 11:13:37;;;;;;;7.55;2.80;;;;;;;10.21;68.84;98656.94;5028389;28;20025;-83
2022/11/06 11:16:04;;;;;;;6.43;3.20;;;;;;;10.33;68.43;98650.38;5025980;28;20022;-83
2022/11/06 11:18:33;;;;;;;8.63;2.28;;;;;;;10.36;67.17;98647.22;5025872;28;21267;-83
2022/11/06 11:21:17;;;;;;;6.55;2.13;;;;;;;10.24;68.13;98643.09;5023141;28;20033;-83
2022/11/06 11:24:03;;;;;;;12.55;2.78;;;;;;;10.24;67.71;98606.53;5028168;28;20473;-83
2022/11/06 11:26:31;;;;;;;4.03;2.37;;;;;;;10.50;67.80;98626.28;5022185;28;20025;-82
2022/11/06 11:29:10;;;;;;;8.95;2.47;;;;;;;10.50;67.88;98611.09;5027059;28;20450;-83
2022/11/06 11:31:36;;;;;;;4.05;2.25;;;;;;;10.65;66.57;98614.94;5009519;28;20017;-83
2022/11/06 11:34:05;;;;;;;5.10;1.90;;;;;;;10.75;67.09;98613.16;5009732;28;20124;-83
2022/11/06 11:36:51;;;;;;;5.72;2.55;;;;;;;10.74;67.34;98608.06;5001029;28;20485;-83
2022/11/06 11:39:20;;;;;;;4.57;3.03;;;;;;;10.82;65.94;98586.22;5024281;28;20032;-82
2022/11/06 11:41:45;;;;;;;7.88;2.22;;;;;;;10.97;65.36;98589.00;5003447;28;20044;-84
2022/11/06 11:44:10;;;;;;;8.25;2.47;;;;;;;11.06;65.04;98592.81;4991452;28;20030;-83
2022/11/06 11:46:46;;;;;;;8.35;3.40;;;;;;;10.96;64.62;98572.19;5025588;28;20371;-83
2022/11/06 11:49:31;;;;;;;4.53;2.20;;;;;;;11.08;65.16;98583.47;5024814;28;20032;-84
2022/11/06 11:51:59;;;;;;;3.03;2.30;;;;;;;11.10;65.27;98567.19;5007529;28;20082;-84
2022/11/06 11:54:29;;;;;;;10.48;2.10;;;;;;;11.12;64.86;98581.91;5027477;28;20033;-84
2022/11/06 11:57:04;;;;;;;4.47;1.98;;;;;;;11.26;64.38;98574.25;5024656;28;20120;-84
2022/11/06 11:59:51;;;;;;;3.47;2.20;;;;;;;11.20;63.71;98554.69;4990533;28;21785;-83
2022/11/06 12:02:17;;;;;;;3.35;2.00;;;;;;;11.26;64.15;98571.56;5007483;28;20037;-83
2022/11/06 12:04:49;;;;;;;4.68;2.05;;;;;;;11.45;63.81;98550.53;5026963;28;20026;-84